In Rescue
 
Open Full Screen Window  High Contrast Mode
July 26, 2021 8:10 PM EDT
Weather Information
Wind Direction
  ---
Wind Speed
  00 kt (0 mph)
Wind Gust
  00 kt (0 mph)
Altimeter
30.03 in
Visibility
10 SM
Temperature
27° C
81° F
Dewpoint
18° C
64° F
Humidity
58%
1hr Rain Fall
00.00 in.
24hr Rain Fall
00.00 in.
Sky Condition
Clear
VFR

METAR KI19 270010Z AUTO 00000KT 10SM CLR 27/18 A3003 RMK AO2 T02650180 PWINO

FAA Disclaimer: The data displayed is for advisory purposes only and is not to be used for flight planning or operations.